Time;durP1;ratioP1;P1;durP2;ratioP2;P2;SDS_P1;SDS_P2;PMS_P1;PMS_P2;Temp;Humidity;BMP_temperature;BMP_pressure;BME280_temperature;BME280_humidity;BME280_pressure;Samples;Min_cycle;Max_cycle;Signal;HPM_P1;HPM_P2
2022/03/22 00:00:49;;;;;;;12.20;8.93;;;12.00;40.00;;;-142.21;43.29;112049.66;4953788;28;20551;-80
2022/03/22 00:03:17;;;;;;;16.03;9.00;;;11.90;40.00;;;-142.21;42.94;112049.66;4954350;28;20504;-80
2022/03/22 00:05:45;;;;;;;12.77;9.20;;;12.00;40.20;;;-142.21;42.90;112049.66;4956866;28;20483;-80
2022/03/22 00:08:12;;;;;;;11.00;8.33;;;11.90;40.30;;;-142.21;42.91;112049.66;4957951;28;20480;-80
2022/03/22 00:10:40;;;;;;;11.10;8.57;;;11.80;40.20;;;-142.21;42.90;112049.66;4957879;28;20992;-77
2022/03/22 00:13:08;;;;;;;12.60;9.10;;;11.80;40.40;;;-142.21;42.53;112049.66;4957872;28;20535;-76
2022/03/22 00:15:36;;;;;;;11.30;8.93;;;11.80;40.40;;;-142.21;42.48;112049.66;4957429;28;20531;-80
2022/03/22 00:18:04;;;;;;;12.73;9.23;;;11.80;40.30;;;-142.21;42.19;112049.66;4957439;29;20903;-78
2022/03/22 00:20:32;;;;;;;11.73;8.43;;;11.80;39.90;;;-142.21;42.66;112049.66;4957731;28;20453;-80
2022/03/22 00:23:00;;;;;;;11.20;8.23;;;11.80;40.00;;;-142.21;42.42;112049.66;4957063;28;20563;-79
2022/03/22 00:25:27;;;;;;;12.50;8.43;;;11.80;40.00;;;-142.21;42.58;112049.66;4957754;28;20499;-77
2022/03/22 00:27:55;;;;;;;12.67;8.77;;;11.70;40.00;;;-142.21;42.35;112049.66;4957426;28;20871;-78
2022/03/22 00:30:27;;;;;;;12.87;8.57;;;11.70;40.00;;;-142.21;42.46;112049.66;4957615;29;20465;-78
2022/03/22 00:33:00;;;;;;;10.20;7.80;;;11.60;40.00;;;-142.21;43.00;112049.66;4957184;29;20475;-79
2022/03/22 00:35:29;;;;;;;12.33;8.97;;;11.60;40.20;;;-142.21;43.08;112049.66;4958020;29;20848;-79
2022/03/22 00:37:59;;;;;;;12.43;8.87;;;11.60;40.20;;;-142.21;43.03;112049.66;4957206;28;20492;-77
2022/03/22 00:40:28;;;;;;;11.73;8.73;;;11.60;40.30;;;-142.21;42.97;112049.66;4957624;29;20445;-79
2022/03/22 00:42:56;;;;;;;13.23;8.47;;;11.50;40.10;;;-142.21;43.81;112049.66;4957587;28;20500;-78
2022/03/22 00:45:28;;;;;;;12.50;8.60;;;11.40;40.40;;;-142.21;43.84;112049.66;4956709;28;20456;-79
2022/03/22 00:47:57;;;;;;;10.80;7.80;;;11.30;40.70;;;-142.21;43.69;112049.66;4957393;29;20422;-80
2022/03/22 00:50:28;;;;;;;12.40;8.50;;;11.30;40.70;;;-142.21;43.76;112049.66;4956755;28;20494;-80
2022/03/22 00:52:56;;;;;;;10.87;7.80;;;11.30;41.20;;;-142.21;43.58;112049.66;4957187;29;20468;-79
2022/03/22 00:55:24;;;;;;;12.63;8.50;;;11.30;40.60;;;-142.21;43.79;112049.66;4956489;28;20450;-80
2022/03/22 00:57:53;;;;;;;13.00;8.77;;;11.20;40.40;;;-142.21;44.22;112049.66;4956797;28;21017;-80
2022/03/22 01:00:23;;;;;;;12.20;8.87;;;11.10;40.70;;;-142.21;44.77;112049.66;4956679;28;20508;-80
2022/03/22 01:02:54;;;;;;;12.93;8.40;;;11.00;40.80;;;-142.21;44.84;112049.66;4956966;29;20445;-76
2022/03/22 01:05:23;;;;;;;12.50;7.90;;;11.00;41.10;;;-142.21;45.13;112049.66;4956713;29;20437;-80
2022/03/22 01:07:54;;;;;;;11.20;8.17;;;11.00;41.00;;;-142.21;44.46;112049.66;4956882;28;20453;-79
2022/03/22 01:10:25;;;;;;;12.50;8.47;;;11.00;41.00;;;-142.21;44.97;112049.66;4956345;29;20481;-76
2022/03/22 01:12:53;;;;;;;10.97;8.67;;;11.00;41.20;;;-142.21;45.33;112049.66;4956747;28;20472;-80
2022/03/22 01:15:23;;;;;;;11.63;8.47;;;11.00;41.00;;;-142.21;45.28;112049.66;4956049;28;21038;-79
2022/03/22 01:17:55;;;;;;;10.57;8.13;;;11.00;41.30;;;-142.21;45.54;112049.66;4956642;29;20516;-80
2022/03/22 01:20:26;;;;;;;13.87;8.17;;;10.90;42.00;;;-142.21;45.45;112049.66;4956529;29;20488;-76
2022/03/22 01:22:55;;;;;;;11.93;7.87;;;10.80;41.40;;;-142.21;45.73;112049.66;4956716;28;20480;-77
2022/03/22 01:25:27;;;;;;;10.70;8.33;;;10.80;41.60;;;-142.21;45.52;112049.66;4973127;28;20461;-77
2022/03/22 01:27:56;;;;;;;10.70;8.10;;;10.70;41.50;;;-142.21;45.92;112049.66;4980369;28;20500;-77
2022/03/22 01:30:25;;;;;;;10.63;8.37;;;10.70;41.50;;;-142.21;45.74;112049.66;4980244;28;20473;-77
2022/03/22 01:32:56;;;;;;;12.30;8.87;;;10.60;41.50;;;-142.21;45.75;112049.66;4980257;28;20477;-75
2022/03/22 01:35:26;;;;;;;10.70;8.03;;;10.50;41.80;;;-142.21;46.18;112049.66;4979964;29;20435;-76
2022/03/22 01:37:55;;;;;;;13.17;7.87;;;10.50;42.20;;;-142.21;46.25;112049.66;4960347;29;20470;-75
2022/03/22 01:40:25;;;;;;;12.73;9.23;;;10.40;42.20;;;-142.21;46.61;112049.66;4982733;28;20449;-76
2022/03/22 01:42:53;;;;;;;11.83;8.47;;;10.30;42.20;;;-142.21;46.18;112049.66;4985855;28;20441;-75
2022/03/22 01:45:20;;;;;;;13.30;8.97;;;10.30;42.30;;;-142.21;45.63;112049.66;4968364;28;20437;-79
2022/03/22 01:47:50;;;;;;;11.37;8.50;;;10.20;41.80;;;-142.21;45.83;112049.66;4955886;28;20472;-79
2022/03/22 01:50:22;;;;;;;10.27;8.30;;;10.20;42.00;;;-142.21;46.99;112049.66;4956092;28;20492;-78
2022/03/22 01:52:49;;;;;;;13.13;8.90;;;10.10;42.40;;;-142.21;46.62;112049.66;4955894;29;21016;-79
2022/03/22 01:55:20;;;;;;;10.37;8.50;;;10.10;41.90;;;-142.21;46.39;112049.66;4955848;28;20492;-80
2022/03/22 01:57:48;;;;;;;10.03;8.30;;;10.10;42.00;;;-142.21;47.44;112049.66;4955840;29;20481;-79
2022/03/22 02:00:18;;;;;;;13.13;9.67;;;10.10;42.20;;;-142.21;46.91;112049.66;4955970;28;20453;-79
2022/03/22 02:05:55;;;;;;;10.57;8.33;;;9.90;43.20;;;-142.21;48.52;112049.66;4956276;29;20504;-79
2022/03/22 02:08:27;;;;;;;10.77;8.73;;;9.90;43.40;;;-142.21;48.13;112049.66;4956039;28;20476;-80
2022/03/22 02:10:56;;;;;;;13.23;8.67;;;9.90;43.20;;;-142.21;48.90;112049.66;4955770;29;20453;-77
2022/03/22 02:13:24;;;;;;;12.23;8.70;;;9.80;44.00;;;-142.21;49.09;112049.66;4956043;28;20485;-78
2022/03/22 02:15:57;;;;;;;14.03;9.00;;;9.80;43.60;;;-142.21;48.79;112049.66;4955771;29;20795;-80
2022/03/22 02:18:25;;;;;;;11.37;8.70;;;9.80;43.80;;;-142.21;49.50;112049.66;4955541;29;20560;-80
2022/03/22 02:20:54;;;;;;;12.67;9.20;;;9.70;43.70;;;-142.21;49.21;112049.66;4955642;28;20886;-77
2022/03/22 02:23:34;;;;;;;13.07;9.30;;;9.80;43.70;;;-142.21;49.34;112049.66;4955091;28;20484;-79
2022/03/22 02:26:01;;;;;;;12.53;9.10;;;9.80;43.70;;;-142.21;49.02;112049.66;4955336;29;20544;-78
2022/03/22 02:28:29;;;;;;;13.63;9.53;;;9.70;43.40;;;-142.21;48.13;112049.66;4955145;28;20453;-80
2022/03/22 02:30:56;;;;;;;11.97;9.03;;;9.70;43.50;;;-142.21;47.66;112049.66;4955593;28;20445;-80
2022/03/22 02:33:24;;;;;;;12.97;8.83;;;9.60;43.40;;;-142.21;48.04;112049.66;4954997;28;20846;-79
2022/03/22 02:35:51;;;;;;;11.80;8.47;;;9.60;43.40;;;-142.21;48.47;112049.66;4955255;28;20456;-79
2022/03/22 02:38:18;;;;;;;10.37;8.33;;;9.70;43.70;;;-142.21;48.39;112049.66;4954951;28;20613;-79
2022/03/22 02:40:48;;;;;;;13.80;9.30;;;9.70;43.10;;;-142.21;47.40;112049.66;4954896;29;20512;-76
2022/03/22 02:43:16;;;;;;;11.53;8.53;;;9.70;42.90;;;-142.21;47.88;112049.66;4954887;28;20444;-80
2022/03/22 02:45:43;;;;;;;11.20;8.93;;;9.70;43.30;;;-142.21;47.42;112049.66;4955288;28;20887;-79
2022/03/22 02:48:11;;;;;;;15.40;9.30;;;9.60;43.00;;;-142.21;46.70;112049.66;4955077;28;20941;-79
2022/03/22 02:50:38;;;;;;;11.93;9.03;;;9.60;42.90;;;-142.21;47.04;112049.66;4954963;28;20449;-79
2022/03/22 02:53:05;;;;;;;11.60;8.33;;;9.60;42.90;;;-142.21;48.37;112049.66;4955146;28;20496;-78
2022/03/22 02:55:33;;;;;;;13.37;8.83;;;9.60;43.40;;;-142.21;48.22;112049.66;4954448;28;20496;-79
2022/03/22 02:58:02;;;;;;;14.47;9.13;;;9.40;43.70;;;-142.21;48.73;112049.66;4955361;28;20904;-79
2022/03/22 03:00:29;;;;;;;15.00;9.07;;;9.40;43.90;;;-142.21;50.22;112049.66;4954359;28;20452;-77
2022/03/22 03:02:57;;;;;;;12.20;9.07;;;9.30;44.50;;;-142.21;49.52;112049.66;4954702;28;20503;-78
2022/03/22 03:05:24;;;;;;;11.27;8.17;;;9.10;44.50;;;-142.21;50.62;112049.66;4955025;29;20857;-80
2022/03/22 03:07:53;;;;;;;11.57;8.73;;;9.00;44.70;;;-142.21;51.63;112049.66;4954085;28;20536;-78
2022/03/22 03:10:21;;;;;;;15.10;9.13;;;9.00;45.20;;;-142.21;51.36;112049.66;4954649;28;20548;-79
2022/03/22 03:12:48;;;;;;;11.80;8.07;;;8.90;44.80;;;-142.21;53.08;112049.66;4954654;28;20445;-79
2022/03/22 03:15:17;;;;;;;11.23;8.73;;;8.80;45.50;;;-142.21;52.51;112049.66;4954713;28;20441;-79
2022/03/22 03:17:44;;;;;;;12.23;8.77;;;8.80;45.30;;;-142.21;53.04;112049.66;4954138;28;20481;-77
2022/03/22 03:20:12;;;;;;;11.97;8.33;;;8.80;46.00;;;-142.21;53.26;112049.66;4954630;28;20536;-79
2022/03/22 03:22:39;;;;;;;13.87;9.20;;;8.70;45.30;;;-142.21;53.87;112049.66;4954442;28;20484;-78
2022/03/22 03:25:08;;;;;;;14.00;9.20;;;8.60;45.40;;;-142.21;54.96;112049.66;4954155;29;20969;-78
2022/03/22 03:27:36;;;;;;;11.27;8.90;;;8.60;46.00;;;-142.21;55.27;112049.66;4954436;28;20461;-79
2022/03/22 03:30:05;;;;;;;12.57;8.77;;;8.40;46.60;;;-142.21;55.76;112049.66;4954424;28;20800;-79
2022/03/22 03:32:35;;;;;;;12.50;9.00;;;8.30;46.80;;;-142.21;54.97;112049.66;4954793;28;20507;-80
2022/03/22 03:35:02;;;;;;;14.40;8.90;;;8.30;46.10;;;-142.21;55.01;112049.66;4936174;29;20469;-79
2022/03/22 03:37:32;;;;;;;12.53;8.87;;;8.30;46.20;;;-142.21;56.71;112049.66;4954536;28;20584;-79
2022/03/22 03:40:00;;;;;;;16.30;9.13;;;8.30;46.60;;;-142.21;55.40;112049.66;4955898;28;20448;-79
2022/03/22 03:42:26;;;;;;;12.10;8.60;;;8.30;46.40;;;-142.21;55.43;112049.66;4958490;28;20820;-79
2022/03/22 03:47:41;;;;;;;12.90;9.00;;;8.20;46.90;;;-142.21;56.55;112049.66;4941544;28;20437;-80
2022/03/22 03:50:10;;;;;;;13.80;9.07;;;8.10;47.20;;;-142.21;56.58;112049.66;4957877;28;20525;-80
2022/03/22 03:52:39;;;;;;;12.93;8.80;;;8.10;47.60;;;-142.21;56.51;112049.66;4958230;28;20508;-80
2022/03/22 03:55:09;;;;;;;11.30;8.45;;;8.10;47.20;;;-142.21;56.62;112049.66;4958384;28;20477;-78
2022/03/22 03:57:37;;;;;;;11.73;8.30;;;8.00;47.30;;;-142.21;57.26;112049.66;4958747;29;20239;-79
2022/03/22 04:00:08;;;;;;;15.83;8.97;;;8.00;47.20;;;-142.21;57.86;112049.66;4958542;28;20767;-80
2022/03/22 04:02:35;;;;;;;13.33;9.13;;;8.00;47.70;;;-142.21;55.52;112049.66;4957767;29;20472;-80
2022/03/22 04:05:04;;;;;;;12.23;8.60;;;8.00;46.70;;;-142.21;55.52;112049.66;4957309;28;20452;-79
2022/03/22 04:07:32;;;;;;;12.90;9.10;;;8.00;47.00;;;-142.21;56.10;112049.66;4957621;28;20603;-79
2022/03/22 04:09:59;;;;;;;12.93;9.07;;;8.00;46.70;;;-142.21;57.04;112049.66;4958251;28;20457;-79
2022/03/22 04:12:26;;;;;;;11.43;8.50;;;7.70;46.90;;;-142.21;55.96;112049.66;4957738;28;20452;-79
2022/03/22 04:14:53;;;;;;;13.67;9.23;;;7.80;47.00;;;-142.21;55.64;112049.66;4958206;28;20492;-76
2022/03/22 04:17:22;;;;;;;11.40;8.47;;;7.80;46.60;;;-142.21;55.96;112049.66;4958040;28;20496;-80
2022/03/22 04:19:49;;;;;;;12.85;9.10;;;7.80;47.20;;;-142.21;56.63;112049.66;4957079;28;20445;-78
2022/03/22 04:22:18;;;;;;;12.38;9.15;;;7.60;47.30;;;-142.21;57.17;112049.66;4957641;28;20212;-79
2022/03/22 04:24:45;;;;;;;14.20;10.10;;;7.70;47.00;;;-142.21;57.53;112049.66;4957486;29;20277;-79
2022/03/22 04:32:45;;;;;;;13.10;9.00;;;7.80;47.00;;;-142.21;56.38;112049.66;4937817;29;20943;-79
2022/03/22 04:35:14;;;;;;;12.43;8.80;;;7.70;46.70;;;-142.21;56.22;112049.66;4938521;29;20444;-79
2022/03/22 04:37:43;;;;;;;11.53;8.70;;;7.80;46.60;;;-142.21;55.66;112049.66;4937789;29;20528;-78
2022/03/22 04:40:14;;;;;;;13.57;9.17;;;7.70;46.00;;;-142.21;56.30;112049.66;4938438;29;20469;-79
2022/03/22 04:42:42;;;;;;;11.43;8.90;;;7.70;46.60;;;-142.21;55.45;112049.66;4938785;29;20485;-79
2022/03/22 04:45:11;;;;;;;13.77;8.85;;;7.70;46.50;;;-142.21;54.95;112049.66;4937930;29;20478;-79
2022/03/22 04:47:39;;;;;;;12.63;8.45;;;7.70;46.30;;;-142.21;55.80;112049.66;4943861;29;20256;-79
2022/03/22 04:50:09;;;;;;;14.17;8.73;;;7.60;46.10;;;-142.21;57.41;112049.66;4956006;28;20215;-79
2022/03/22 04:58:07;;;;;;;12.13;8.27;;;7.40;46.60;;;-142.21;57.72;112049.66;4937426;29;20623;-80
2022/03/22 05:00:35;;;;;;;12.50;8.57;;;7.30;47.10;;;-142.21;58.08;112049.66;4938205;29;20265;-78
2022/03/22 05:03:03;;;;;;;12.33;8.47;;;7.20;48.10;;;-142.21;59.91;112049.66;4937068;29;20607;-79
2022/03/22 05:08:15;;;;;;;12.57;8.63;;;6.90;48.90;;;-142.21;60.85;112049.66;4937239;29;20451;-79
2022/03/22 05:10:44;;;;;;;13.38;9.30;;;6.80;49.10;;;-142.21;60.61;112049.66;4937918;29;20442;-79
2022/03/22 05:13:12;;;;;;;12.70;8.77;;;6.60;49.40;;;-142.21;61.30;112049.66;4937422;29;20206;-80
2022/03/22 05:15:39;;;;;;;13.23;9.20;;;6.80;49.20;;;-142.21;60.27;112049.66;4937571;29;20300;-78
2022/03/22 05:18:06;;;;;;;11.23;8.98;;;6.90;48.80;;;-142.21;62.27;112049.66;4937528;29;20230;-78
2022/03/22 05:20:33;;;;;;;13.03;9.43;;;6.90;49.00;;;-142.21;62.36;112049.66;4936930;29;20715;-78
2022/03/22 05:23:01;;;;;;;10.35;8.00;;;6.90;48.70;;;-142.21;62.47;112049.66;4937225;29;20493;-78
2022/03/22 05:25:31;;;;;;;12.57;8.68;;;6.90;48.70;;;-142.21;61.91;112049.66;4937305;29;20249;-78
2022/03/22 05:28:02;;;;;;;14.15;9.13;;;6.80;48.80;;;-142.21;61.80;112049.66;4937335;29;20212;-78
2022/03/22 05:30:30;;;;;;;13.07;8.80;;;6.80;48.90;;;-142.21;62.43;112049.66;4936867;29;20202;-78
2022/03/22 05:32:57;;;;;;;14.55;8.88;;;6.70;49.60;;;-142.21;63.95;112049.66;4937107;29;20292;-76
2022/03/22 05:35:26;;;;;;;15.07;9.20;;;6.60;50.00;;;-142.21;62.97;112049.66;4937133;29;20198;-78
2022/03/22 05:37:54;;;;;;;11.63;8.82;;;6.70;49.90;;;-142.21;63.13;112049.66;4936997;29;20229;-76
2022/03/22 05:40:22;;;;;;;13.52;9.30;;;6.70;49.30;;;-142.21;62.29;112049.66;4936997;29;20581;-77
2022/03/22 05:42:51;;;;;;;11.68;8.43;;;6.80;49.00;;;-142.21;62.34;112049.66;4937005;29;20237;-79
2022/03/22 05:45:20;;;;;;;13.13;8.98;;;6.80;49.00;;;-142.21;63.31;112049.66;4936943;29;20663;-79
2022/03/22 05:47:48;;;;;;;11.45;9.00;;;6.70;49.30;;;-142.21;63.57;112049.66;4937456;29;20216;-76
2022/03/22 05:50:16;;;;;;;12.43;8.35;;;6.70;49.20;;;-142.21;64.28;112049.66;4956028;28;20219;-77
2022/03/22 05:52:47;;;;;;;13.82;9.60;;;6.80;49.30;;;-142.21;63.93;112049.66;4955522;28;20209;-79
2022/03/22 05:55:15;;;;;;;13.27;8.48;;;6.90;49.40;;;-142.21;63.09;112049.66;4956387;29;20280;-79
2022/03/22 05:57:42;;;;;;;10.57;7.53;;;7.00;49.40;;;-142.21;62.67;112049.66;4955364;28;20293;-79
2022/03/22 06:00:13;;;;;;;11.40;8.55;;;7.00;48.90;;;-142.21;63.15;112049.66;4955851;28;20213;-78
2022/03/22 06:02:42;;;;;;;11.80;8.40;;;7.10;49.10;;;-142.21;63.67;112049.66;4954918;28;20644;-80
2022/03/22 06:05:14;;;;;;;13.48;9.18;;;7.20;49.20;;;-142.21;62.78;112049.66;4955792;28;20220;-80
2022/03/22 06:07:44;;;;;;;12.43;9.20;;;7.20;49.30;;;-142.21;63.76;112049.66;4955875;28;20316;-78
2022/03/22 06:10:13;;;;;;;13.00;9.05;;;7.30;49.20;;;-142.21;63.25;112049.66;4955308;29;20224;-77
2022/03/22 06:12:42;;;;;;;14.10;9.10;;;7.40;49.10;;;-142.21;64.12;112049.66;4956068;28;20303;-78
2022/03/22 06:15:17;;;;;;;13.00;9.10;;;7.40;49.10;;;-142.21;64.72;112049.66;4955166;28;20511;-77
2022/03/22 06:17:52;;;;;;;12.20;8.70;;;7.50;49.10;;;-142.21;65.64;112049.66;4938429;29;20292;-78
2022/03/22 06:20:23;;;;;;;13.88;8.77;;;7.60;49.10;;;-142.21;65.14;112049.66;4954936;29;21817;-79
2022/03/22 06:22:51;;;;;;;14.55;9.00;;;7.80;49.20;;;-142.21;65.56;112049.66;4955457;28;20237;-76
2022/03/22 06:25:19;;;;;;;11.33;9.17;;;7.90;49.20;;;-142.21;65.69;112049.66;4955178;28;20252;-76
2022/03/22 06:27:50;;;;;;;14.65;9.35;;;8.00;49.30;;;-142.21;64.08;112049.66;4955926;28;20508;-73
2022/03/22 06:30:21;;;;;;;15.30;9.33;;;8.20;49.00;;;-142.21;62.89;112049.66;4954739;29;20232;-79
2022/03/22 06:32:52;;;;;;;10.68;7.93;;;8.30;49.40;;;-142.21;64.00;112049.66;4955026;29;20456;-81
2022/03/22 06:35:24;;;;;;;12.73;9.43;;;8.40;49.10;;;-142.21;63.20;112049.66;4954962;29;20600;-79
2022/03/22 06:37:52;;;;;;;11.63;9.23;;;8.60;48.70;;;-142.21;61.80;112049.66;4955436;29;20448;-79
2022/03/22 06:40:22;;;;;;;12.83;9.57;;;8.90;48.30;;;-142.21;60.58;112049.66;4954450;29;20484;-78
2022/03/22 06:42:51;;;;;;;15.23;10.00;;;9.10;48.00;;;-142.21;61.35;112049.66;4948611;29;20527;-78
2022/03/22 06:45:19;;;;;;;13.90;9.77;;;9.40;47.70;;;-142.21;60.31;112049.66;4934831;29;20466;-76
2022/03/22 06:47:48;;;;;;;12.93;9.20;;;9.70;47.40;;;-142.21;60.07;112049.66;4947944;29;20461;-78
2022/03/22 06:50:22;;;;;;;14.13;9.27;;;10.00;46.70;;;-142.21;59.45;112049.66;4954764;29;20449;-78
2022/03/22 06:52:50;;;;;;;12.63;9.57;;;10.40;46.00;;;-142.21;59.14;112049.66;4954934;29;20515;-77
2022/03/22 06:55:22;;;;;;;12.93;9.40;;;10.50;45.30;;;-142.21;58.90;112049.66;4954256;29;20858;-73
2022/03/22 06:57:52;;;;;;;13.10;9.80;;;10.60;45.10;;;-142.21;59.43;112049.66;4956433;28;20464;-74
2022/03/22 07:00:21;;;;;;;12.07;9.47;;;10.80;45.10;;;-142.21;60.19;112049.66;4954243;28;20453;-77
2022/03/22 07:02:50;;;;;;;12.53;9.40;;;11.10;44.80;;;-142.21;59.37;112049.66;4955023;29;20441;-78
2022/03/22 07:05:19;;;;;;;13.93;9.90;;;11.40;44.70;;;-142.21;56.86;112049.66;4954063;28;20457;-78
2022/03/22 07:07:46;;;;;;;15.53;9.73;;;11.80;43.90;;;-142.21;58.02;112049.66;4953616;28;20539;-78
2022/03/22 07:10:17;;;;;;;12.67;9.70;;;12.20;44.10;;;-142.21;56.22;112049.66;4954271;28;20449;-74
2022/03/22 07:12:53;;;;;;;11.13;9.10;;;12.80;43.30;;;-142.21;53.83;112049.66;4953598;29;20800;-78
2022/03/22 07:15:23;;;;;;;13.23;10.23;;;13.10;42.10;;;-142.21;53.90;112049.66;4954582;29;20483;-73
2022/03/22 07:17:53;;;;;;;12.53;9.67;;;13.70;42.10;;;-142.21;53.45;112049.66;4953741;29;20436;-78
2022/03/22 07:20:23;;;;;;;10.17;9.07;;;14.00;40.70;;;-142.21;51.77;112049.66;4953988;29;20989;-74
2022/03/22 07:22:51;;;;;;;11.30;10.03;;;14.40;40.00;;;-142.21;51.38;112049.66;4953432;28;20512;-78
2022/03/22 07:25:19;;;;;;;12.73;8.97;;;14.30;39.60;;;-142.21;50.80;112049.66;4942970;29;20445;-74
2022/03/22 07:27:48;;;;;;;13.10;9.97;;;14.10;38.80;;;-142.21;49.18;112049.66;4953238;28;20457;-78
2022/03/22 07:30:16;;;;;;;12.73;9.47;;;15.10;38.70;;;-142.21;49.92;112049.66;4954368;28;20452;-73
2022/03/22 07:32:45;;;;;;;11.40;9.30;;;15.20;38.00;;;-142.21;49.11;112049.66;4953175;28;20457;-74
2022/03/22 07:35:14;;;;;;;14.13;9.63;;;14.50;37.60;;;-142.21;49.77;112049.66;4953615;28;20485;-77
2022/03/22 07:37:44;;;;;;;9.80;8.87;;;14.30;38.70;;;-142.21;49.16;112049.66;4935325;29;20822;-76
2022/03/22 07:40:18;;;;;;;13.30;10.37;;;14.10;38.60;;;-142.21;49.90;112049.66;4954135;28;20531;-78
2022/03/22 07:42:45;;;;;;;10.80;8.97;;;13.80;39.10;;;-142.21;48.67;112049.66;4954006;29;20937;-77
2022/03/22 07:45:13;;;;;;;13.73;10.40;;;13.80;39.30;;;-142.21;48.92;112049.66;4953298;28;20453;-77
2022/03/22 07:47:41;;;;;;;12.63;9.83;;;14.20;39.70;;;-142.21;48.37;112049.66;4954496;28;20552;-76
2022/03/22 07:53:01;;;;;;;11.93;9.83;;;14.90;38.40;;;-142.21;49.52;112049.66;4954112;29;20440;-75
2022/03/22 07:55:33;;;;;;;13.80;10.60;;;15.20;38.40;;;-142.21;47.51;112049.66;4937783;29;20437;-74
2022/03/22 07:58:02;;;;;;;11.33;9.70;;;14.70;37.40;;;-142.21;48.44;112049.66;4952803;29;20456;-78
2022/03/22 08:00:31;;;;;;;13.70;10.27;;;14.30;38.10;;;-142.21;46.88;112049.66;4953839;28;20543;-74
2022/03/22 08:03:03;;;;;;;12.97;9.60;;;14.10;38.40;;;-142.21;47.16;112049.66;4954243;28;20437;-77
2022/03/22 08:05:32;;;;;;;13.30;10.17;;;13.90;39.00;;;-142.21;47.71;112049.66;4954131;29;20437;-77
2022/03/22 08:08:01;;;;;;;14.40;10.50;;;13.70;39.20;;;-142.21;47.10;112049.66;4954178;28;20492;-77
2022/03/22 08:10:30;;;;;;;15.60;10.30;;;13.70;38.70;;;-142.21;46.93;112049.66;4953484;28;20484;-79
2022/03/22 08:12:58;;;;;;;13.67;10.43;;;13.60;39.30;;;-142.21;46.73;112049.66;4953822;29;20448;-77
2022/03/22 08:15:25;;;;;;;13.63;10.80;;;13.60;39.20;;;-142.21;46.61;112049.66;4953080;28;20456;-78
2022/03/22 08:17:52;;;;;;;14.40;9.73;;;13.60;39.50;;;-142.21;46.10;112049.66;4953723;29;20976;-78
2022/03/22 08:20:19;;;;;;;13.23;10.27;;;13.70;39.30;;;-142.21;46.71;112049.66;4953636;28;20492;-77
2022/03/22 08:22:50;;;;;;;12.90;9.90;;;13.70;39.50;;;-142.21;47.29;112049.66;4953763;28;20495;-78
2022/03/22 08:25:23;;;;;;;14.07;10.67;;;13.90;39.90;;;-142.21;45.29;112049.66;4953299;28;20429;-77
2022/03/22 08:27:51;;;;;;;13.50;10.40;;;14.10;38.40;;;-142.21;45.31;112049.66;4957510;29;20441;-77
2022/03/22 08:30:21;;;;;;;12.77;10.03;;;14.50;37.70;;;-142.21;44.38;112049.66;4956928;28;20472;-77
2022/03/22 08:32:49;;;;;;;12.30;11.00;;;14.70;37.50;;;-142.21;42.53;112049.66;4938300;29;20450;-78
2022/03/22 08:35:17;;;;;;;13.10;10.50;;;14.60;36.80;;;-142.21;42.59;112049.66;4937941;29;20453;-78
2022/03/22 08:37:44;;;;;;;14.43;10.57;;;14.40;36.80;;;-142.21;42.98;112049.66;4953271;29;20969;-79
2022/03/22 08:40:15;;;;;;;13.30;10.93;;;14.30;37.00;;;-142.21;42.91;112049.66;4956924;28;21111;-79
2022/03/22 08:42:44;;;;;;;14.50;11.20;;;14.20;37.00;;;-142.21;43.39;112049.66;4956721;29;20880;-78
2022/03/22 08:45:13;;;;;;;14.23;11.13;;;14.30;37.50;;;-142.21;42.36;112049.66;4956968;28;20515;-77
2022/03/22 08:47:42;;;;;;;16.50;11.07;;;14.60;37.40;;;-142.21;42.28;112049.66;4954330;28;20945;-77
2022/03/22 08:50:12;;;;;;;15.10;11.17;;;14.80;37.30;;;-142.21;41.46;112049.66;4956723;28;20488;-78
2022/03/22 08:52:40;;;;;;;13.77;10.63;;;14.80;36.20;;;-142.21;42.45;112049.66;4938838;29;20535;-78
2022/03/22 08:55:13;;;;;;;13.37;10.53;;;14.60;36.50;;;-142.21;42.17;112049.66;4953359;29;20487;-78
2022/03/22 08:57:41;;;;;;;14.33;10.70;;;14.60;37.00;;;-142.21;41.79;112049.66;4940062;29;20527;-76
2022/03/22 09:00:14;;;;;;;12.57;10.00;;;15.10;36.70;;;-142.21;40.33;112049.66;4956712;28;20492;-78
2022/03/22 09:02:44;;;;;;;12.43;10.60;;;16.40;36.70;;;-142.21;38.78;112049.66;4956082;29;20516;-77
2022/03/22 09:08:01;;;;;;;12.03;10.70;;;19.90;34.60;;;-142.21;40.33;112049.66;4956180;28;20710;-77
2022/03/22 09:10:29;;;;;;;13.53;11.90;;;21.80;32.70;;;-142.21;37.94;112049.66;4956597;29;20197;-79
2022/03/22 09:12:58;;;;;;;14.60;11.43;;;23.40;31.60;;;-142.21;38.85;112049.66;4955962;29;20667;-77
2022/03/22 09:15:30;;;;;;;13.90;11.63;;;24.40;29.70;;;-142.21;38.53;112049.66;4956283;28;20300;-77
2022/03/22 09:17:59;;;;;;;12.70;11.40;;;25.20;28.20;;;-142.21;39.56;112049.66;4956149;29;20294;-76
2022/03/22 09:20:33;;;;;;;12.27;10.97;;;26.20;28.70;;;-142.21;38.97;112049.66;4956221;28;20237;-76
2022/03/22 09:23:02;;;;;;;12.53;11.10;;;26.80;27.90;;;-142.21;38.24;112049.66;4955540;28;20232;-78
2022/03/22 09:25:29;;;;;;;13.17;11.60;;;27.70;27.40;;;-142.21;36.89;112049.66;4956299;29;20611;-78
2022/03/22 09:28:00;;;;;;;12.67;10.77;;;28.40;26.40;;;-142.21;37.58;112049.66;4955905;29;20241;-78
2022/03/22 09:30:29;;;;;;;13.07;11.73;;;29.00;26.40;;;-142.21;38.31;112049.66;4956378;29;20606;-77
2022/03/22 09:32:57;;;;;;;12.87;11.47;;;29.60;25.40;;;-142.21;37.75;112049.66;4955836;28;20309;-77
2022/03/22 09:35:25;;;;;;;13.30;10.67;;;30.10;25.50;;;-142.21;37.06;112049.66;4956370;29;20342;-77
2022/03/22 09:37:53;;;;;;;13.27;11.73;;;30.70;25.30;;;-142.21;35.62;112049.66;4954618;28;20212;-77
2022/03/22 09:40:21;;;;;;;13.67;10.97;;;31.30;24.20;;;-142.21;36.08;112049.66;4941108;28;20227;-78
2022/03/22 09:42:50;;;;;;;12.83;11.53;;;31.70;24.00;;;-142.21;35.96;112049.66;4955863;28;20205;-77
2022/03/22 09:45:20;;;;;;;17.30;11.80;;;32.00;23.30;;;-142.21;35.47;112049.66;4955624;29;20214;-76
2022/03/22 09:47:48;;;;;;;13.30;11.33;;;32.10;23.00;;;-142.21;37.26;112049.66;4955718;29;20229;-79
2022/03/22 09:54:07;;;;;;;12.50;11.27;;;32.40;20.70;;;-142.21;35.61;112049.66;4937046;29;20230;-76
2022/03/22 09:56:34;;;;;;;12.50;11.30;;;32.20;22.60;;;-142.21;34.58;112049.66;4936906;29;20210;-78
2022/03/22 09:59:05;;;;;;;12.77;11.50;;;32.30;22.20;;;-142.21;35.23;112049.66;4919305;29;20613;-78
2022/03/22 10:01:33;;;;;;;13.30;11.93;;;32.10;22.10;;;-142.21;34.38;112049.66;4936770;29;20246;-76
2022/03/22 10:04:04;;;;;;;12.37;11.17;;;32.30;21.70;;;-142.21;33.96;112049.66;4935578;29;20209;-76
2022/03/22 10:06:32;;;;;;;12.93;11.70;;;32.50;22.10;;;-142.21;33.26;112049.66;4935728;29;20208;-75
2022/03/22 10:09:00;;;;;;;12.40;11.20;;;32.70;21.40;;;-142.21;33.90;112049.66;4934873;29;20631;-75
2022/03/22 10:11:39;;;;;;;12.33;11.13;;;32.80;21.90;;;-142.21;34.05;112049.66;4935774;29;20308;-75
2022/03/22 10:14:09;;;;;;;13.37;11.97;;;33.10;21.60;;;-142.21;33.76;112049.66;4936263;29;20289;-77
2022/03/22 10:16:48;;;;;;;12.40;11.10;;;33.20;21.70;;;-142.21;32.97;112049.66;4935681;29;20674;-76
2022/03/22 10:19:23;;;;;;;12.67;11.30;;;33.20;21.10;;;-142.21;32.50;112049.66;4936514;29;20227;-77
2022/03/22 10:21:53;;;;;;;13.10;11.80;;;33.00;21.20;;;-142.21;31.05;112049.66;4935731;29;20197;-80
2022/03/22 10:24:21;;;;;;;12.73;11.53;;;32.90;21.40;;;-142.21;31.00;112049.66;4936090;29;20714;-80
2022/03/22 10:26:48;;;;;;;13.50;12.10;;;32.90;21.50;;;-142.21;30.70;112049.66;4935914;29;20249;-77
2022/03/22 10:29:17;;;;;;;12.97;11.57;;;32.90;21.10;;;-142.21;31.62;112049.66;4935964;29;20234;-77
2022/03/22 10:31:46;;;;;;;12.93;11.73;;;32.70;21.40;;;-142.21;29.49;112049.66;4935609;29;20212;-77